Flight Briefing for CPX775

Departure Arrival
Li├Ęge Airport (EBLG)
Click to view FAA NOTAMS
Ben Gurion International Airport (LLBG)
Click to view FAA NOTAMS
Departure Time Arrival Time
N/A N/A
Aircraft Distance
B767-300BDSF 1718nm
Departure METAR Arrival METAR
EBLG 271050Z 30008KT 270V330 9999 SCT028 BKN042 16/10 Q1011 NOSIG LLBG 271050Z 32011KT CAVOK 27/17 Q1011 NOSIG
Suggested Route
LIRSU UZ315 RIDAR UZ738 UNKEN TALAS UN130 MES UL609 SOLIN GODED2


View recent IFR Routes data
Notes



Charts and Procedures

Charts for EBLG
No chart available
Charts for LLBG
No chart available

Windy.com Weather Map